Kieimaru — JJ3880 — position and weather

sailwx.info

Track history (hours):
 
Tides and Currents Weather Stations Pressure Air Temp Water Temp Dewpoint Dewpoint Depression Visibility Wind Speed Wind Dir Waves Ship Positions

Kieimaru

Last reported at 2018-Feb-22 10:13 UTC. Time now 2018-Feb-22 18:29 UTC.
Position N 33°48' E 134°49'.

Length 100 m; draft 4.6 m.

Type: Cargo ship. MMSI: 431300131.

Date/timePositionNaut miles runAvg speedWind from/ knotsBaromVisibWave heightAir tempDewpointWater temp
2018-Feb-22 10:13N 33°48' E 134°49'313.7
2018-Feb-22 10:00N 33°50' E 134°51'713.2
2018-Feb-22 09:29N 33°57' E 134°53'613.3
2018-Feb-22 09:01N 34°03' E 134°55'713.3
2018-Feb-22 08:30N 34°09' E 134°56'714.0
2018-Feb-22 08:01N 34°16' E 134°58'714.3
2018-Feb-22 07:30N 34°23' E 134°60'713.7
2018-Feb-22 07:00N 34°30' E 135°01'612.6
2018-Feb-22 06:30N 34°36' E 135°02'713.0
2018-Feb-22 06:00N 34°37' E 134°55'611.6
2018-Feb-22 05:30N 34°41' E 134°50'2 3.2
2018-Feb-22 05:00N 34°43' E 134°50'0 0.0
2018-Feb-22 04:21N 34°43' E 134°50'0 0.0
2018-Feb-22 04:00N 34°43' E 134°50'0 0.1
2018-Feb-22 03:30N 34°43' E 134°50'0 0.1
2018-Feb-22 02:48N 34°43' E 134°50'0 0.0
2018-Feb-22 02:18N 34°43' E 134°50'0 0.0
2018-Feb-22 01:12N 34°43' E 134°50'0 0.0
2018-Feb-22 00:48N 34°43' E 134°50'0 0.0
2018-Feb-22 00:18N 34°43' E 134°50'0 0.0
2018-Feb-22 00:00N 34°43' E 134°50'0 0.1
2018-Feb-21 23:30N 34°43' E 134°50'0 0.0
2018-Feb-21 22:54N 34°43' E 134°50'0 0.1
2018-Feb-21 22:18N 34°43' E 134°50'0 0.0
2018-Feb-21 21:51N 34°43' E 134°50'0 0.0
2018-Feb-21 21:30N 34°43' E 134°50'0 0.1
2018-Feb-21 21:00N 34°43' E 134°50'0 0.1
2018-Feb-21 20:30N 34°43' E 134°50'0 0.1
2018-Feb-21 20:00N 34°43' E 134°50'0 0.0
2018-Feb-21 19:24N 34°43' E 134°50'0 0.1
2018-Feb-21 18:57N 34°43' E 134°50'0 0.1
2018-Feb-21 18:27N 34°43' E 134°50'0 0.1
2018-Feb-21 18:00N 34°43' E 134°50'0 0.0
2018-Feb-21 17:31N 34°43' E 134°50'2 3.1
2018-Feb-21 17:01N 34°41' E 134°50'510.5
2018-Feb-21 16:30N 34°37' E 134°54'713.1
2018-Feb-21 16:00N 34°37' E 135°02'510.6
2018-Feb-21 15:30N 34°32' E 135°05'611.9
2018-Feb-21 15:00N 34°26' E 135°03'611.7
2018-Feb-21 14:31N 34°21' E 135°01'612.1
2018-Feb-21 14:00N 34°15' E 134°59'611.3
2018-Feb-21 13:31N 34°09' E 134°59'611.1
2018-Feb-21 13:00N 34°04' E 134°57'611.4
2018-Feb-21 12:31N 33°59' E 134°55'611.0
2018-Feb-21 12:00N 33°53' E 134°53'1111.1
2018-Feb-21 10:58N 33°44' E 134°45'0 0.0
2018-Feb-20 15:36N 33°44' E 134°45'113.2
2018-Feb-20 15:30N 33°45' E 134°46'813.2
2018-Feb-20 14:55N 33°51' E 134°51'813.1
2018-Feb-20 14:17N 33°59' E 134°54'412.8
2018-Feb-20 14:00N 34°02' E 134°54'612.8
2018-Feb-20 13:31N 34°09' E 134°56'612.6
2018-Feb-20 13:01N 34°15' E 134°58'612.0
2018-Feb-20 12:30N 34°21' E 134°59'612.6
2018-Feb-20 12:00N 34°27' E 135°01'612.4
2018-Feb-20 11:31N 34°33' E 135°02'5 9.4
2018-Feb-20 11:00N 34°37' E 134°60'612.6
2018-Feb-20 10:31N 34°38' E 134°52'5 9.7
2018-Feb-20 10:01N 34°42' E 134°50'0 0.1
2018-Feb-20 08:40N 34°43' E 134°50'0 0.0
2018-Feb-20 08:31N 34°43' E 134°50'0 0.0
2018-Feb-20 07:04N 34°43' E 134°50'0 0.0
2018-Feb-20 06:52N 34°43' E 134°50'0 0.0
2018-Feb-20 05:22N 34°43' E 134°50'0 0.0
2018-Feb-20 04:37N 34°43' E 134°50'0 0.0
2018-Feb-20 04:28N 34°43' E 134°50'0 0.0
2018-Feb-20 03:52N 34°43' E 134°50'0 0.1
2018-Feb-20 03:31N 34°43' E 134°50'0 0.1
2018-Feb-20 03:01N 34°43' E 134°50'0 0.0
2018-Feb-20 02:31N 34°43' E 134°50'0 0.0
2018-Feb-20 01:55N 34°43' E 134°50'0 0.1
2018-Feb-20 01:22N 34°43' E 134°50'0 0.1
2018-Feb-20 00:46N 34°43' E 134°50'0 0.0
2018-Feb-20 00:24N 34°43' E 134°50'0 0.0
2018-Feb-19 23:58N 34°43' E 134°50'0 0.1
2018-Feb-19 23:30N 34°43' E 134°50'4 7.5
2018-Feb-19 23:00N 34°39' E 134°50'611.9
2018-Feb-19 22:30N 34°37' E 134°57'510.0
2018-Feb-19 22:01N 34°36' E 135°03'4 7.6
2018-Feb-19 21:31N 34°33' E 135°05'511.0
2018-Feb-19 21:01N 34°27' E 135°03'510.7
2018-Feb-19 20:30N 34°22' E 135°01'510.2
2018-Feb-19 20:01N 34°17' E 134°59'5 9.0
2018-Feb-19 19:31N 34°13' E 134°59'510.5
2018-Feb-19 19:00N 34°07' E 134°58'510.7
2018-Feb-19 18:30N 34°02' E 134°57'610.7
2018-Feb-19 17:55N 33°56' E 134°54'510.5
2018-Feb-19 17:24N 33°51' E 134°52'410.2
2018-Feb-19 16:59N 33°48' E 134°49'510.4
2018-Feb-19 16:30N 33°44' E 134°45'0 0.0
2018-Feb-18 20:33N 33°44' E 134°45'113.9
2018-Feb-18 20:27N 33°45' E 134°46'613.8
2018-Feb-18 20:00N 33°49' E 134°51'613.0
2018-Feb-18 19:30N 33°56' E 134°53'713.4
2018-Feb-18 19:00N 34°02' E 134°54'713.6
2018-Feb-18 18:31N 34°09' E 134°56'714.3
2018-Feb-18 18:00N 34°16' E 134°58'714.4
2018-Feb-18 17:30N 34°23' E 134°60'713.7
2018-Feb-18 17:01N 34°29' E 135°02'612.8
2018-Feb-18 16:30N 34°36' E 135°03'612.8
2018-Feb-18 16:00N 34°36' E 134°55'713.0
2018-Feb-18 15:30N 34°40' E 134°48'3 4.7
2018-Feb-18 14:55N 34°43' E 134°50'0 0.0
2018-Feb-18 14:22N 34°43' E 134°50'0 0.0
2018-Feb-18 13:49N 34°43' E 134°50'0 0.0
2018-Feb-18 13:25N 34°43' E 134°50'0 0.0
2018-Feb-18 12:55N 34°43' E 134°50'0 0.0
2018-Feb-18 12:19N 34°43' E 134°50'0 0.0
2018-Feb-18 11:55N 34°43' E 134°50'0 0.0
2018-Feb-18 11:28N 34°43' E 134°50'0 0.0
2018-Feb-18 10:49N 34°43' E 134°50'0 0.0
2018-Feb-18 10:19N 34°43' E 134°50'0 0.0
2018-Feb-18 09:55N 34°43' E 134°50'0 0.1
2018-Feb-18 09:28N 34°43' E 134°50'0 0.1
2018-Feb-18 08:58N 34°43' E 134°50'0 0.1
2018-Feb-18 08:13N 34°43' E 134°50'0 0.2
2018-Feb-18 07:55N 34°43' E 134°50'0 0.0
2018-Feb-18 07:22N 34°43' E 134°50'0 0.0
2018-Feb-18 06:58N 34°43' E 134°50'0 0.1
2018-Feb-18 06:28N 34°43' E 134°50'0 0.0
2018-Feb-18 05:55N 34°43' E 134°50'0 0.1
2018-Feb-18 05:13N 34°43' E 134°50'0 0.0
2018-Feb-18 04:55N 34°43' E 134°50'0 0.0
2018-Feb-18 04:25N 34°43' E 134°50'0 0.0
2018-Feb-18 03:37N 34°43' E 134°50'0 0.0
2018-Feb-18 03:25N 34°43' E 134°50'0 0.0
2018-Feb-18 02:59N 34°43' E 134°50'1 2.4
2018-Feb-18 02:31N 34°41' E 134°50'510.2
2018-Feb-18 02:01N 34°38' E 134°45'510.2
2018-Feb-18 01:31N 34°36' E 134°39'510.9
2018-Feb-18 01:00N 34°33' E 134°34'511.1
2018-Feb-18 00:30N 34°30' E 134°28'610.7
2018-Feb-17 23:59N 34°26' E 134°23'10 9.9
2018-Feb-17 22:56N 34°24' E 134°11'74 9.6
2018-Feb-17 15:10N 33°60' E 132°45'211.9
2018-Feb-17 14:59N 33°58' E 132°44'711.8
2018-Feb-17 14:22N 33°54' E 132°37'611.4
2018-Feb-17 13:52N 33°50' E 132°32'3411.2
2018-Feb-17 10:48N 33°44' E 131°52'410.9
2018-Feb-17 10:28N 33°45' E 131°47'510.8
2018-Feb-17 10:00N 33°46' E 131°41'510.8
2018-Feb-17 09:31N 33°47' E 131°35'510.7
2018-Feb-17 09:01N 33°48' E 131°29'611.1
2018-Feb-17 08:29N 33°49' E 131°22'511.1
2018-Feb-17 08:00N 33°51' E 131°16'510.6
2018-Feb-17 07:31N 33°55' E 131°12'1 2.5
2018-Feb-17 07:00N 33°56' E 131°12'0 0.0
2018-Feb-17 06:30N 33°56' E 131°12'0 0.0
2018-Feb-17 05:57N 33°56' E 131°12'0 0.0
2018-Feb-17 05:27N 33°56' E 131°12'0 0.0
2018-Feb-17 04:57N 33°56' E 131°12'0 0.0
2018-Feb-17 04:27N 33°56' E 131°12'0 0.0
2018-Feb-17 03:57N 33°56' E 131°12'0 0.0
2018-Feb-17 03:30N 33°56' E 131°12'0 0.0
2018-Feb-17 03:00N 33°56' E 131°12'0 0.0
2018-Feb-17 02:30N 33°56' E 131°12'0 0.0
2018-Feb-17 02:00N 33°56' E 131°12'0 0.0
2018-Feb-17 01:30N 33°56' E 131°12'3 5.3
2018-Feb-17 01:00N 33°54' E 131°12'612.0
2018-Feb-17 00:30N 33°51' E 131°18'713.0
2018-Feb-17 00:00N 33°50' E 131°26'612.8
2018-Feb-16 23:31N 33°48' E 131°34'712.9
2018-Feb-16 23:00N 33°47' E 131°41'612.7
2018-Feb-16 22:30N 33°45' E 131°49'1812.4
2018-Feb-16 21:02N 33°43' E 132°11'212.3
2018-Feb-16 20:50N 33°43' E 132°13'912.6
2018-Feb-16 20:05N 33°46' E 132°24'213.2
2018-Feb-16 19:56N 33°47' E 132°26'713.1
2018-Feb-16 19:24N 33°51' E 132°33'613.4
2018-Feb-16 18:59N 33°55' E 132°38'713.8
2018-Feb-16 18:30N 33°59' E 132°44'7212.1
2018-Feb-16 12:32N 34°27' E 134°05'513.7
2018-Feb-16 12:12N 34°25' E 134°10'314.1
2018-Feb-16 12:00N 34°24' E 134°13'713.5
2018-Feb-16 11:30N 34°25' E 134°21'713.1
2018-Feb-16 11:01N 34°29' E 134°28'713.0
2018-Feb-16 10:28N 34°33' E 134°35'612.9
2018-Feb-16 10:01N 34°37' E 134°41'713.0
2018-Feb-16 09:30N 34°40' E 134°47'3 5.2
2018-Feb-16 08:54N 34°43' E 134°50'0 0.1
2018-Feb-16 08:30N 34°43' E 134°50'0 0.0
2018-Feb-16 08:00N 34°43' E 134°50'0 0.1
2018-Feb-16 07:18N 34°43' E 134°50'0 0.0
2018-Feb-16 07:00N 34°43' E 134°50'0 0.0
2018-Feb-16 06:30N 34°43' E 134°50'0 0.0
2018-Feb-16 05:57N 34°43' E 134°50'0 0.0
2018-Feb-16 05:27N 34°43' E 134°50'0 0.0
2018-Feb-16 04:51N 34°43' E 134°50'0 0.0
2018-Feb-16 04:30N 34°43' E 134°50'0 0.0
2018-Feb-16 03:57N 34°43' E 134°50'0 0.0
2018-Feb-16 03:30N 34°43' E 134°50'0 0.0
2018-Feb-16 02:45N 34°43' E 134°50'0 0.0
2018-Feb-16 02:21N 34°43' E 134°50'0 0.0
2018-Feb-16 01:39N 34°43' E 134°50'0 0.2
2018-Feb-16 01:21N 34°43' E 134°50'0 0.1
2018-Feb-16 01:00N 34°43' E 134°50'0 0.0
2018-Feb-16 00:30N 34°43' E 134°50'0 0.0
2018-Feb-15 23:54N 34°43' E 134°50'0 0.0
2018-Feb-15 23:18N 34°43' E 134°50'0 0.0
2018-Feb-15 23:00N 34°43' E 134°50'0 0.1
2018-Feb-15 22:30N 34°43' E 134°50'0 0.0
2018-Feb-15 22:00N 34°43' E 134°50'0 0.0
2018-Feb-15 21:12N 34°43' E 134°50'0 0.0
2018-Feb-15 19:51N 34°43' E 134°50'0 0.9
2018-Feb-15 19:30N 34°42' E 134°50'4 8.0
2018-Feb-15 19:00N 34°39' E 134°52'5 9.9
2018-Feb-15 18:30N 34°37' E 134°58'4 8.1
2018-Feb-15 18:00N 34°37' E 135°02'3 7.1
2018-Feb-15 17:30N 34°34' E 135°05'5 9.8
2018-Feb-15 17:00N 34°29' E 135°04'510.4
2018-Feb-15 16:30N 34°24' E 135°02'510.1
2018-Feb-15 16:00N 34°20' E 135°00'4 8.7
2018-Feb-15 15:30N 34°15' E 134°59'5 9.7
2018-Feb-15 15:00N 34°10' E 134°59'510.0
2018-Feb-15 14:30N 34°06' E 134°58'510.2
2018-Feb-15 14:00N 34°01' E 134°56'510.3
2018-Feb-15 13:30N 33°56' E 134°54'610.2
2018-Feb-15 12:54N 33°50' E 134°51'810.0
2018-Feb-15 12:09N 33°44' E 134°45'1 0.0
2018-Feb-14 11:05N 33°44' E 134°45'312.6
2018-Feb-14 10:53N 33°46' E 134°46'512.6
2018-Feb-14 10:28N 33°50' E 134°51'612.4
2018-Feb-14 10:00N 33°55' E 134°52'712.7
2018-Feb-14 09:29N 34°02' E 134°54'612.5
2018-Feb-14 09:00N 34°07' E 134°56'712.9
2018-Feb-14 08:30N 34°14' E 134°58'612.6
2018-Feb-14 08:01N 34°20' E 134°59'612.7
2018-Feb-14 07:30N 34°26' E 135°01'612.4
2018-Feb-14 07:00N 34°32' E 135°03'511.0
2018-Feb-14 06:31N 34°37' E 134°59'713.6
2018-Feb-14 06:00N 34°39' E 134°51'4 8.2
2018-Feb-14 05:30N 34°43' E 134°50'0 0.0
2018-Feb-14 04:55N 34°43' E 134°50'0 0.1
2018-Feb-14 04:25N 34°43' E 134°50'0 0.1
2018-Feb-14 03:58N 34°43' E 134°50'0 0.1
2018-Feb-14 03:25N 34°43' E 134°50'0 0.1
2018-Feb-14 02:58N 34°43' E 134°50'0 0.1
2018-Feb-14 02:25N 34°43' E 134°50'0 0.1
2018-Feb-14 01:49N 34°43' E 134°50'0 0.0
2018-Feb-14 01:25N 34°43' E 134°50'0 0.1
2018-Feb-14 00:55N 34°43' E 134°50'0 0.0
2018-Feb-14 00:25N 34°43' E 134°50'0 0.0
2018-Feb-13 23:58N 34°43' E 134°50'0 0.0
2018-Feb-13 23:25N 34°43' E 134°50'0 0.0
2018-Feb-13 22:55N 34°43' E 134°50'0 0.0
2018-Feb-13 22:25N 34°43' E 134°50'0 0.0
2018-Feb-13 21:58N 34°43' E 134°50'0 0.0
2018-Feb-13 21:25N 34°43' E 134°50'0 0.0
2018-Feb-13 20:58N 34°43' E 134°50'0 0.0
2018-Feb-13 20:28N 34°43' E 134°50'0 0.0
2018-Feb-13 19:55N 34°43' E 134°50'0 0.0
2018-Feb-13 19:28N 34°43' E 134°50'0 0.0
2018-Feb-13 18:52N 34°43' E 134°50'0 0.0
2018-Feb-13 18:25N 34°43' E 134°50'1 2.3
2018-Feb-13 18:00N 34°42' E 134°50'4 8.6
2018-Feb-13 17:31N 34°38' E 134°53'5 9.8
2018-Feb-13 17:01N 34°38' E 134°59'4 7.9
2018-Feb-13 16:30N 34°36' E 135°03'4 7.8
2018-Feb-13 16:00N 34°33' E 135°05'510.6
2018-Feb-13 15:30N 34°27' E 135°03'510.5
2018-Feb-13 15:01N 34°22' E 135°02'510.3
2018-Feb-13 14:31N 34°18' E 134°59'510.0
2018-Feb-13 14:00N 34°13' E 134°59'510.8
2018-Feb-13 13:30N 34°07' E 134°58'510.8
2018-Feb-13 13:01N 34°02' E 134°56'610.8
2018-Feb-13 12:30N 33°57' E 134°54'610.7
2018-Feb-13 11:59N 33°52' E 134°52'7 0.3
2018-Feb-12 14:04N 33°46' E 134°47'313.5
2018-Feb-12 13:50N 33°48' E 134°50'513.3
2018-Feb-12 13:27N 33°53' E 134°52'613.7
2018-Feb-12 13:00N 33°59' E 134°54'713.6
2018-Feb-12 12:30N 34°06' E 134°55'713.5
2018-Feb-12 12:00N 34°12' E 134°57'713.5
2018-Feb-12 11:30N 34°19' E 134°59'713.1
2018-Feb-12 11:00N 34°25' E 135°00'612.9
2018-Feb-12 10:30N 34°32' E 135°02'  
Track history (hours):
 
Tides and Currents Weather Stations Pressure Air Temp Water Temp Dewpoint Dewpoint Depression Visibility Wind Speed Wind Dir Waves Ship Positions

Kieimaru

Last reported at 2018-Feb-22 10:13 UTC. Time now 2018-Feb-22 18:29 UTC.
Position N 33°48' E 134°49'.

Length 100 m; draft 4.6 m.

Type: Cargo ship. MMSI: 431300131.

Date/timePositionNaut miles runAvg speedWind from/ knotsBaromVisibWave heightAir tempDewpointWater temp
2018-Feb-22 10:13N 33°48' E 134°49'313.7
2018-Feb-22 10:00N 33°50' E 134°51'713.2
2018-Feb-22 09:29N 33°57' E 134°53'613.3
2018-Feb-22 09:01N 34°03' E 134°55'713.3
2018-Feb-22 08:30N 34°09' E 134°56'714.0
2018-Feb-22 08:01N 34°16' E 134°58'714.3
2018-Feb-22 07:30N 34°23' E 134°60'713.7
2018-Feb-22 07:00N 34°30' E 135°01'612.6
2018-Feb-22 06:30N 34°36' E 135°02'713.0
2018-Feb-22 06:00N 34°37' E 134°55'611.6
2018-Feb-22 05:30N 34°41' E 134°50'2 3.2
2018-Feb-22 05:00N 34°43' E 134°50'0 0.0
2018-Feb-22 04:21N 34°43' E 134°50'0 0.0
2018-Feb-22 04:00N 34°43' E 134°50'0 0.1
2018-Feb-22 03:30N 34°43' E 134°50'0 0.1
2018-Feb-22 02:48N 34°43' E 134°50'0 0.0
2018-Feb-22 02:18N 34°43' E 134°50'0 0.0
2018-Feb-22 01:12N 34°43' E 134°50'0 0.0
2018-Feb-22 00:48N 34°43' E 134°50'0 0.0
2018-Feb-22 00:18N 34°43' E 134°50'0 0.0
2018-Feb-22 00:00N 34°43' E 134°50'0 0.1
2018-Feb-21 23:30N 34°43' E 134°50'0 0.0
2018-Feb-21 22:54N 34°43' E 134°50'0 0.1
2018-Feb-21 22:18N 34°43' E 134°50'0 0.0
2018-Feb-21 21:51N 34°43' E 134°50'0 0.0
2018-Feb-21 21:30N 34°43' E 134°50'0 0.1
2018-Feb-21 21:00N 34°43' E 134°50'0 0.1
2018-Feb-21 20:30N 34°43' E 134°50'0 0.1
2018-Feb-21 20:00N 34°43' E 134°50'0 0.0
2018-Feb-21 19:24N 34°43' E 134°50'0 0.1
2018-Feb-21 18:57N 34°43' E 134°50'0 0.1
2018-Feb-21 18:27N 34°43' E 134°50'0 0.1
2018-Feb-21 18:00N 34°43' E 134°50'0 0.0
2018-Feb-21 17:31N 34°43' E 134°50'2 3.1
2018-Feb-21 17:01N 34°41' E 134°50'510.5
2018-Feb-21 16:30N 34°37' E 134°54'713.1
2018-Feb-21 16:00N 34°37' E 135°02'510.6
2018-Feb-21 15:30N 34°32' E 135°05'611.9
2018-Feb-21 15:00N 34°26' E 135°03'611.7
2018-Feb-21 14:31N 34°21' E 135°01'612.1
2018-Feb-21 14:00N 34°15' E 134°59'611.3
2018-Feb-21 13:31N 34°09' E 134°59'611.1
2018-Feb-21 13:00N 34°04' E 134°57'611.4
2018-Feb-21 12:31N 33°59' E 134°55'611.0
2018-Feb-21 12:00N 33°53' E 134°53'1111.1
2018-Feb-21 10:58N 33°44' E 134°45'0 0.0
2018-Feb-20 15:36N 33°44' E 134°45'113.2
2018-Feb-20 15:30N 33°45' E 134°46'813.2
2018-Feb-20 14:55N 33°51' E 134°51'813.1
2018-Feb-20 14:17N 33°59' E 134°54'412.8
2018-Feb-20 14:00N 34°02' E 134°54'612.8
2018-Feb-20 13:31N 34°09' E 134°56'612.6
2018-Feb-20 13:01N 34°15' E 134°58'612.0
2018-Feb-20 12:30N 34°21' E 134°59'612.6
2018-Feb-20 12:00N 34°27' E 135°01'612.4
2018-Feb-20 11:31N 34°33' E 135°02'5 9.4
2018-Feb-20 11:00N 34°37' E 134°60'612.6
2018-Feb-20 10:31N 34°38' E 134°52'5 9.7
2018-Feb-20 10:01N 34°42' E 134°50'0 0.1
2018-Feb-20 08:40N 34°43' E 134°50'0 0.0
2018-Feb-20 08:31N 34°43' E 134°50'0 0.0
2018-Feb-20 07:04N 34°43' E 134°50'0 0.0
2018-Feb-20 06:52N 34°43' E 134°50'0 0.0
2018-Feb-20 05:22N 34°43' E 134°50'0 0.0
2018-Feb-20 04:37N 34°43' E 134°50'0 0.0
2018-Feb-20 04:28N 34°43' E 134°50'0 0.0
2018-Feb-20 03:52N 34°43' E 134°50'0 0.1
2018-Feb-20 03:31N 34°43' E 134°50'0 0.1
2018-Feb-20 03:01N 34°43' E 134°50'0 0.0
2018-Feb-20 02:31N 34°43' E 134°50'0 0.0
2018-Feb-20 01:55N 34°43' E 134°50'0 0.1
2018-Feb-20 01:22N 34°43' E 134°50'0 0.1
2018-Feb-20 00:46N 34°43' E 134°50'0 0.0
2018-Feb-20 00:24N 34°43' E 134°50'0 0.0
2018-Feb-19 23:58N 34°43' E 134°50'0 0.1
2018-Feb-19 23:30N 34°43' E 134°50'4 7.5
2018-Feb-19 23:00N 34°39' E 134°50'611.9
2018-Feb-19 22:30N 34°37' E 134°57'510.0
2018-Feb-19 22:01N 34°36' E 135°03'4 7.6
2018-Feb-19 21:31N 34°33' E 135°05'511.0
2018-Feb-19 21:01N 34°27' E 135°03'510.7
2018-Feb-19 20:30N 34°22' E 135°01'510.2
2018-Feb-19 20:01N 34°17' E 134°59'5 9.0
2018-Feb-19 19:31N 34°13' E 134°59'510.5
2018-Feb-19 19:00N 34°07' E 134°58'510.7
2018-Feb-19 18:30N 34°02' E 134°57'610.7
2018-Feb-19 17:55N 33°56' E 134°54'510.5
2018-Feb-19 17:24N 33°51' E 134°52'410.2
2018-Feb-19 16:59N 33°48' E 134°49'510.4
2018-Feb-19 16:30N 33°44' E 134°45'0 0.0
2018-Feb-18 20:33N 33°44' E 134°45'113.9
2018-Feb-18 20:27N 33°45' E 134°46'613.8
2018-Feb-18 20:00N 33°49' E 134°51'613.0
2018-Feb-18 19:30N 33°56' E 134°53'713.4
2018-Feb-18 19:00N 34°02' E 134°54'713.6
2018-Feb-18 18:31N 34°09' E 134°56'714.3
2018-Feb-18 18:00N 34°16' E 134°58'714.4
2018-Feb-18 17:30N 34°23' E 134°60'713.7
2018-Feb-18 17:01N 34°29' E 135°02'612.8
2018-Feb-18 16:30N 34°36' E 135°03'612.8
2018-Feb-18 16:00N 34°36' E 134°55'713.0
2018-Feb-18 15:30N 34°40' E 134°48'3 4.7
2018-Feb-18 14:55N 34°43' E 134°50'0 0.0
2018-Feb-18 14:22N 34°43' E 134°50'0 0.0
2018-Feb-18 13:49N 34°43' E 134°50'0 0.0
2018-Feb-18 13:25N 34°43' E 134°50'0 0.0
2018-Feb-18 12:55N 34°43' E 134°50'0 0.0
2018-Feb-18 12:19N 34°43' E 134°50'0 0.0
2018-Feb-18 11:55N 34°43' E 134°50'0 0.0
2018-Feb-18 11:28N 34°43' E 134°50'0 0.0
2018-Feb-18 10:49N 34°43' E 134°50'0 0.0
2018-Feb-18 10:19N 34°43' E 134°50'0 0.0
2018-Feb-18 09:55N 34°43' E 134°50'0 0.1
2018-Feb-18 09:28N 34°43' E 134°50'0 0.1
2018-Feb-18 08:58N 34°43' E 134°50'0 0.1
2018-Feb-18 08:13N 34°43' E 134°50'0 0.2
2018-Feb-18 07:55N 34°43' E 134°50'0 0.0
2018-Feb-18 07:22N 34°43' E 134°50'0 0.0
2018-Feb-18 06:58N 34°43' E 134°50'0 0.1
2018-Feb-18 06:28N 34°43' E 134°50'0 0.0
2018-Feb-18 05:55N 34°43' E 134°50'0 0.1
2018-Feb-18 05:13N 34°43' E 134°50'0 0.0
2018-Feb-18 04:55N 34°43' E 134°50'0 0.0
2018-Feb-18 04:25N 34°43' E 134°50'0 0.0
2018-Feb-18 03:37N 34°43' E 134°50'0 0.0
2018-Feb-18 03:25N 34°43' E 134°50'0 0.0
2018-Feb-18 02:59N 34°43' E 134°50'1 2.4
2018-Feb-18 02:31N 34°41' E 134°50'510.2
2018-Feb-18 02:01N 34°38' E 134°45'510.2
2018-Feb-18 01:31N 34°36' E 134°39'510.9
2018-Feb-18 01:00N 34°33' E 134°34'511.1
2018-Feb-18 00:30N 34°30' E 134°28'610.7
2018-Feb-17 23:59N 34°26' E 134°23'10 9.9
2018-Feb-17 22:56N 34°24' E 134°11'74 9.6
2018-Feb-17 15:10N 33°60' E 132°45'211.9
2018-Feb-17 14:59N 33°58' E 132°44'711.8
2018-Feb-17 14:22N 33°54' E 132°37'611.4
2018-Feb-17 13:52N 33°50' E 132°32'3411.2
2018-Feb-17 10:48N 33°44' E 131°52'410.9
2018-Feb-17 10:28N 33°45' E 131°47'510.8
2018-Feb-17 10:00N 33°46' E 131°41'510.8
2018-Feb-17 09:31N 33°47' E 131°35'510.7
2018-Feb-17 09:01N 33°48' E 131°29'611.1
2018-Feb-17 08:29N 33°49' E 131°22'511.1
2018-Feb-17 08:00N 33°51' E 131°16'510.6
2018-Feb-17 07:31N 33°55' E 131°12'1 2.5
2018-Feb-17 07:00N 33°56' E 131°12'0 0.0
2018-Feb-17 06:30N 33°56' E 131°12'0 0.0
2018-Feb-17 05:57N 33°56' E 131°12'0 0.0
2018-Feb-17 05:27N 33°56' E 131°12'0 0.0
2018-Feb-17 04:57N 33°56' E 131°12'0 0.0
2018-Feb-17 04:27N 33°56' E 131°12'0 0.0
2018-Feb-17 03:57N 33°56' E 131°12'0 0.0
2018-Feb-17 03:30N 33°56' E 131°12'0 0.0
2018-Feb-17 03:00N 33°56' E 131°12'0 0.0
2018-Feb-17 02:30N 33°56' E 131°12'0 0.0
2018-Feb-17 02:00N 33°56' E 131°12'0 0.0
2018-Feb-17 01:30N 33°56' E 131°12'3 5.3
2018-Feb-17 01:00N 33°54' E 131°12'612.0
2018-Feb-17 00:30N 33°51' E 131°18'713.0
2018-Feb-17 00:00N 33°50' E 131°26'612.8
2018-Feb-16 23:31N 33°48' E 131°34'712.9
2018-Feb-16 23:00N 33°47' E 131°41'612.7
2018-Feb-16 22:30N 33°45' E 131°49'1812.4
2018-Feb-16 21:02N 33°43' E 132°11'212.3
2018-Feb-16 20:50N 33°43' E 132°13'912.6
2018-Feb-16 20:05N 33°46' E 132°24'213.2
2018-Feb-16 19:56N 33°47' E 132°26'713.1
2018-Feb-16 19:24N 33°51' E 132°33'613.4
2018-Feb-16 18:59N 33°55' E 132°38'713.8
2018-Feb-16 18:30N 33°59' E 132°44'7212.1
2018-Feb-16 12:32N 34°27' E 134°05'513.7
2018-Feb-16 12:12N 34°25' E 134°10'314.1
2018-Feb-16 12:00N 34°24' E 134°13'713.5
2018-Feb-16 11:30N 34°25' E 134°21'713.1
2018-Feb-16 11:01N 34°29' E 134°28'713.0
2018-Feb-16 10:28N 34°33' E 134°35'612.9
2018-Feb-16 10:01N 34°37' E 134°41'713.0
2018-Feb-16 09:30N 34°40' E 134°47'3 5.2
2018-Feb-16 08:54N 34°43' E 134°50'0 0.1
2018-Feb-16 08:30N 34°43' E 134°50'0 0.0
2018-Feb-16 08:00N 34°43' E 134°50'0 0.1
2018-Feb-16 07:18N 34°43' E 134°50'0 0.0
2018-Feb-16 07:00N 34°43' E 134°50'0 0.0
2018-Feb-16 06:30N 34°43' E 134°50'0 0.0
2018-Feb-16 05:57N 34°43' E 134°50'0 0.0
2018-Feb-16 05:27N 34°43' E 134°50'0 0.0
2018-Feb-16 04:51N 34°43' E 134°50'0 0.0
2018-Feb-16 04:30N 34°43' E 134°50'0 0.0
2018-Feb-16 03:57N 34°43' E 134°50'0 0.0
2018-Feb-16 03:30N 34°43' E 134°50'0 0.0
2018-Feb-16 02:45N 34°43' E 134°50'0 0.0
2018-Feb-16 02:21N 34°43' E 134°50'0 0.0
2018-Feb-16 01:39N 34°43' E 134°50'0 0.2
2018-Feb-16 01:21N 34°43' E 134°50'0 0.1
2018-Feb-16 01:00N 34°43' E 134°50'0 0.0
2018-Feb-16 00:30N 34°43' E 134°50'0 0.0
2018-Feb-15 23:54N 34°43' E 134°50'0 0.0
2018-Feb-15 23:18N 34°43' E 134°50'0 0.0
2018-Feb-15 23:00N 34°43' E 134°50'0 0.1
2018-Feb-15 22:30N 34°43' E 134°50'0 0.0
2018-Feb-15 22:00N 34°43' E 134°50'0 0.0
2018-Feb-15 21:12N 34°43' E 134°50'0 0.0
2018-Feb-15 19:51N 34°43' E 134°50'0 0.9
2018-Feb-15 19:30N 34°42' E 134°50'4 8.0
2018-Feb-15 19:00N 34°39' E 134°52'5 9.9
2018-Feb-15 18:30N 34°37' E 134°58'4 8.1
2018-Feb-15 18:00N 34°37' E 135°02'3 7.1
2018-Feb-15 17:30N 34°34' E 135°05'5 9.8
2018-Feb-15 17:00N 34°29' E 135°04'510.4
2018-Feb-15 16:30N 34°24' E 135°02'510.1
2018-Feb-15 16:00N 34°20' E 135°00'4 8.7
2018-Feb-15 15:30N 34°15' E 134°59'5 9.7
2018-Feb-15 15:00N 34°10' E 134°59'510.0
2018-Feb-15 14:30N 34°06' E 134°58'510.2
2018-Feb-15 14:00N 34°01' E 134°56'510.3
2018-Feb-15 13:30N 33°56' E 134°54'610.2
2018-Feb-15 12:54N 33°50' E 134°51'810.0
2018-Feb-15 12:09N 33°44' E 134°45'1 0.0
2018-Feb-14 11:05N 33°44' E 134°45'312.6
2018-Feb-14 10:53N 33°46' E 134°46'512.6
2018-Feb-14 10:28N 33°50' E 134°51'612.4
2018-Feb-14 10:00N 33°55' E 134°52'712.7
2018-Feb-14 09:29N 34°02' E 134°54'612.5
2018-Feb-14 09:00N 34°07' E 134°56'712.9
2018-Feb-14 08:30N 34°14' E 134°58'612.6
2018-Feb-14 08:01N 34°20' E 134°59'612.7
2018-Feb-14 07:30N 34°26' E 135°01'612.4
2018-Feb-14 07:00N 34°32' E 135°03'511.0
2018-Feb-14 06:31N 34°37' E 134°59'713.6
2018-Feb-14 06:00N 34°39' E 134°51'4 8.2
2018-Feb-14 05:30N 34°43' E 134°50'0 0.0
2018-Feb-14 04:55N 34°43' E 134°50'0 0.1
2018-Feb-14 04:25N 34°43' E 134°50'0 0.1
2018-Feb-14 03:58N 34°43' E 134°50'0 0.1
2018-Feb-14 03:25N 34°43' E 134°50'0 0.1
2018-Feb-14 02:58N 34°43' E 134°50'0 0.1
2018-Feb-14 02:25N 34°43' E 134°50'0 0.1
2018-Feb-14 01:49N 34°43' E 134°50'0 0.0
2018-Feb-14 01:25N 34°43' E 134°50'0 0.1
2018-Feb-14 00:55N 34°43' E 134°50'0 0.0
2018-Feb-14 00:25N 34°43' E 134°50'0 0.0
2018-Feb-13 23:58N 34°43' E 134°50'0 0.0
2018-Feb-13 23:25N 34°43' E 134°50'0 0.0
2018-Feb-13 22:55N 34°43' E 134°50'0 0.0
2018-Feb-13 22:25N 34°43' E 134°50'0 0.0
2018-Feb-13 21:58N 34°43' E 134°50'0 0.0
2018-Feb-13 21:25N 34°43' E 134°50'0 0.0
2018-Feb-13 20:58N 34°43' E 134°50'0 0.0
2018-Feb-13 20:28N 34°43' E 134°50'0 0.0
2018-Feb-13 19:55N 34°43' E 134°50'0 0.0
2018-Feb-13 19:28N 34°43' E 134°50'0 0.0
2018-Feb-13 18:52N 34°43' E 134°50'0 0.0
2018-Feb-13 18:25N 34°43' E 134°50'1 2.3
2018-Feb-13 18:00N 34°42' E 134°50'4 8.6
2018-Feb-13 17:31N 34°38' E 134°53'5 9.8
2018-Feb-13 17:01N 34°38' E 134°59'4 7.9
2018-Feb-13 16:30N 34°36' E 135°03'4 7.8
2018-Feb-13 16:00N 34°33' E 135°05'510.6
2018-Feb-13 15:30N 34°27' E 135°03'510.5
2018-Feb-13 15:01N 34°22' E 135°02'510.3
2018-Feb-13 14:31N 34°18' E 134°59'510.0
2018-Feb-13 14:00N 34°13' E 134°59'510.8
2018-Feb-13 13:30N 34°07' E 134°58'510.8
2018-Feb-13 13:01N 34°02' E 134°56'610.8
2018-Feb-13 12:30N 33°57' E 134°54'610.7
2018-Feb-13 11:59N 33°52' E 134°52'7 0.3
2018-Feb-12 14:04N 33°46' E 134°47'313.5
2018-Feb-12 13:50N 33°48' E 134°50'513.3
2018-Feb-12 13:27N 33°53' E 134°52'613.7
2018-Feb-12 13:00N 33°59' E 134°54'713.6
2018-Feb-12 12:30N 34°06' E 134°55'713.5
2018-Feb-12 12:00N 34°12' E 134°57'713.5
2018-Feb-12 11:30N 34°19' E 134°59'713.1
2018-Feb-12 11:00N 34°25' E 135°00'612.9
2018-Feb-12 10:30N 34°32' E 135°02'  

Dump ship's entire track history